createdAt,value
2023-03-23T15:59:05.988Z,45.15
2023-03-23T16:01:32.354Z,44.02
2023-03-23T16:03:58.733Z,44.63
2023-03-23T16:06:25.698Z,44.84
2023-03-23T16:08:53.823Z,44.85
2023-03-23T16:11:18.112Z,45.36
2023-03-23T16:13:45.577Z,44.83
2023-03-23T16:16:11.916Z,45.34
2023-03-23T16:18:38.378Z,45.75
2023-03-23T16:21:04.757Z,46.01
2023-03-23T16:23:31.079Z,46.14
2023-03-23T16:25:57.411Z,46.40
2023-03-23T16:28:23.810Z,46.48
2023-03-23T16:30:50.231Z,46.92
2023-03-23T16:33:16.556Z,46.90
2023-03-23T16:35:43.154Z,47.13
2023-03-23T16:38:09.462Z,47.42
2023-03-23T16:40:35.817Z,47.23
2023-03-23T16:43:02.157Z,47.29
2023-03-23T16:45:28.484Z,47.32
2023-03-23T16:47:54.960Z,47.45
2023-03-23T16:50:21.336Z,47.75
2023-03-23T16:52:47.711Z,48.02
2023-03-23T16:55:14.068Z,48.27
2023-03-23T16:57:41.409Z,48.13
2023-03-23T17:00:07.015Z,48.21
2023-03-23T17:02:33.462Z,48.38
2023-03-23T17:04:59.735Z,49.09
2023-03-23T17:07:26.186Z,48.71
2023-03-23T17:09:52.533Z,48.55
2023-03-23T17:12:19.002Z,48.71
2023-03-23T17:14:45.352Z,48.71
2023-03-23T17:17:11.789Z,48.77
2023-03-23T17:19:38.185Z,48.89
2023-03-23T17:22:04.530Z,48.98
2023-03-23T17:24:30.892Z,49.19
2023-03-23T17:26:57.317Z,49.13
2023-03-23T17:29:23.724Z,49.40
2023-03-23T17:31:50.238Z,49.64
2023-03-23T17:34:18.106Z,49.71
2023-03-23T17:36:42.939Z,49.90
2023-03-23T17:39:09.340Z,49.84
2023-03-23T17:41:35.715Z,50.25
2023-03-23T17:44:02.028Z,50.30
2023-03-23T17:46:28.512Z,50.57
2023-03-23T17:48:54.820Z,50.25
2023-03-23T17:51:21.189Z,50.23
2023-03-23T17:53:47.725Z,50.58
2023-03-23T17:56:14.116Z,50.87
2023-03-23T17:58:40.481Z,50.93
2023-03-23T18:01:06.870Z,51.12
2023-03-23T18:03:33.263Z,51.37
2023-03-23T18:05:59.609Z,51.24
2023-03-23T18:08:25.981Z,51.24
2023-03-23T18:10:52.402Z,51.27
2023-03-23T18:13:18.741Z,51.10
2023-03-23T18:15:46.668Z,51.16
2023-03-23T18:18:11.586Z,51.00
2023-03-23T18:20:37.929Z,50.98
2023-03-23T18:23:05.517Z,51.24
2023-03-23T18:25:31.904Z,51.09
2023-03-23T18:27:58.308Z,51.49
2023-03-23T18:30:24.877Z,51.33
2023-03-23T18:32:51.376Z,51.07
2023-03-23T18:35:17.653Z,51.35
2023-03-23T18:37:43.980Z,51.48
2023-03-23T18:40:10.369Z,51.81
2023-03-23T18:42:36.785Z,51.32
2023-03-23T18:45:03.153Z,51.37
2023-03-23T18:47:29.573Z,51.65
2023-03-23T18:49:56.053Z,51.88
2023-03-23T18:52:22.373Z,51.97
2023-03-23T18:54:48.759Z,51.77
2023-03-23T18:57:15.148Z,52.05
2023-03-23T18:59:41.538Z,52.14
2023-03-23T19:02:08.027Z,56.30
2023-03-23T19:04:34.342Z,59.03
2023-03-23T19:07:00.658Z,57.58
2023-03-23T19:09:27.053Z,55.58
2023-03-23T19:11:53.390Z,54.50
2023-03-23T19:14:19.760Z,54.20
2023-03-23T19:16:46.118Z,54.05
2023-03-23T19:19:13.693Z,53.93
2023-03-23T19:21:40.220Z,55.82
2023-03-23T19:24:06.201Z,57.09
2023-03-23T19:26:35.861Z,56.56
2023-03-23T19:31:27.727Z,57.93
2023-03-23T19:33:54.261Z,58.72
2023-03-23T19:36:20.399Z,59.57
2023-03-23T19:38:46.818Z,60.41
2023-03-23T19:41:13.199Z,61.17
2023-03-23T19:43:39.571Z,61.96
2023-03-23T19:46:06.018Z,62.72
2023-03-23T19:48:32.276Z,63.51
2023-03-23T19:50:58.657Z,64.23
2023-03-23T19:53:26.522Z,65.01
2023-03-23T19:55:51.765Z,65.80
2023-03-23T19:58:17.995Z,66.68
2023-03-23T20:00:44.846Z,67.51
2023-03-23T20:03:11.683Z,68.30
2023-03-23T20:05:38.052Z,69.09
2023-03-23T20:08:04.838Z,69.82
2023-03-23T20:10:30.739Z,70.56
2023-03-23T20:12:57.176Z,71.31
2023-03-23T20:15:23.522Z,71.93
2023-03-23T20:17:49.977Z,72.59
2023-03-23T20:20:16.295Z,73.23
2023-03-23T20:22:42.667Z,73.80
2023-03-23T20:25:09.080Z,74.37
2023-03-23T20:27:35.475Z,74.87
2023-03-23T20:30:03.945Z,75.37
2023-03-23T20:32:28.257Z,75.83
2023-03-23T20:34:54.560Z,76.29
2023-03-23T20:37:21.028Z,76.75
2023-03-23T20:39:47.318Z,77.21
2023-03-23T20:42:13.707Z,77.61
2023-03-23T20:44:42.256Z,78.02
2023-03-23T20:47:08.650Z,78.49
2023-03-23T20:49:35.014Z,78.88
2023-03-23T20:52:01.423Z,79.34
2023-03-23T20:54:27.746Z,79.72
2023-03-23T20:56:56.162Z,80.08
2023-03-23T20:59:20.744Z,83.19
2023-03-23T21:01:47.124Z,84.17
2023-03-23T21:04:13.461Z,84.38
2023-03-23T21:06:39.861Z,84.41
2023-03-23T21:09:06.257Z,84.40
2023-03-23T21:11:32.642Z,84.49
2023-03-23T21:13:58.955Z,84.56
2023-03-23T21:16:25.465Z,84.70
2023-03-23T21:18:51.871Z,84.83
2023-03-23T21:21:18.436Z,84.92
2023-03-23T21:23:44.837Z,85.05
2023-03-23T21:26:11.192Z,85.22
2023-03-23T21:28:37.585Z,85.45
2023-03-23T21:31:13.321Z,85.61
2023-03-23T21:33:39.640Z,85.77
2023-03-23T21:36:06.052Z,85.96
2023-03-23T21:38:32.445Z,86.17
2023-03-23T21:40:58.827Z,86.32
2023-03-23T21:43:25.191Z,86.53
2023-03-23T21:45:51.625Z,86.68
2023-03-23T21:48:17.956Z,86.92
2023-03-23T21:50:44.534Z,87.12
2023-03-23T21:53:10.757Z,87.35
2023-03-23T21:55:37.092Z,87.55
2023-03-23T21:58:03.429Z,87.75
2023-03-23T22:00:30.098Z,88.00
2023-03-23T22:02:56.477Z,88.27
2023-03-23T22:05:22.815Z,88.49
2023-03-23T22:07:49.382Z,88.67
2023-03-23T22:10:15.756Z,88.92
2023-03-23T22:12:42.083Z,89.11
2023-03-23T22:15:08.429Z,89.31
2023-03-23T22:17:34.786Z,89.51
2023-03-23T22:20:01.156Z,89.74
2023-03-23T22:22:27.506Z,89.91
2023-03-23T22:24:53.848Z,90.06
2023-03-23T22:27:20.283Z,90.26
2023-03-23T22:29:46.616Z,90.40
2023-03-23T22:32:12.967Z,90.58
2023-03-23T22:34:39.342Z,90.80
2023-03-23T22:37:05.687Z,90.94
2023-03-23T22:39:32.149Z,91.06
2023-03-23T22:41:58.454Z,91.20
2023-03-23T22:44:24.901Z,91.34
2023-03-23T22:46:51.339Z,91.56
2023-03-23T22:49:19.847Z,91.72
2023-03-23T22:51:46.227Z,91.95
2023-03-23T22:54:12.583Z,92.04
2023-03-23T22:56:38.994Z,92.21
2023-03-23T22:59:05.360Z,92.43
2023-03-23T23:01:31.757Z,92.57
2023-03-23T23:03:58.135Z,92.68
2023-03-23T23:06:24.421Z,92.84
2023-03-23T23:08:51.174Z,92.88
2023-03-23T23:11:17.498Z,93.03
2023-03-23T23:13:43.857Z,93.15
2023-03-23T23:16:10.220Z,93.31
2023-03-23T23:18:36.539Z,93.44
2023-03-23T23:21:02.886Z,93.62
2023-03-23T23:23:29.233Z,93.73
2023-03-23T23:25:55.589Z,93.84
2023-03-23T23:28:21.965Z,93.97
2023-03-23T23:30:48.757Z,94.10
2023-03-23T23:33:14.724Z,94.29
2023-03-23T23:35:41.102Z,94.34
2023-03-23T23:38:07.421Z,94.40
2023-03-23T23:40:33.765Z,94.47
2023-03-23T23:43:00.228Z,94.56
2023-03-23T23:45:26.560Z,94.74
2023-03-23T23:47:53.067Z,94.86
2023-03-23T23:50:19.386Z,94.99
2023-03-23T23:52:45.731Z,95.13
2023-03-23T23:55:12.132Z,95.21
2023-03-23T23:57:38.467Z,95.25
